Time;durP1;ratioP1;P1;durP2;ratioP2;P2;SDS_P1;SDS_P2;PMS_P1;PMS_P2;Temp;Humidity;BMP_temperature;BMP_pressure;BME280_temperature;BME280_humidity;BME280_pressure;Samples;Min_cycle;Max_cycle;Signal;HPM_P1;HPM_P2
2023/08/16 00:01:28;;;;;;;3.92;2.30;;;;;;;;;;5056001;28;20021;-76
2023/08/16 00:03:54;;;;;;;2.75;2.20;;;;;;;;;;5063794;28;20031;-74
2023/08/16 00:06:20;;;;;;;3.47;2.20;;;;;;;;;;5056222;28;20021;-75
2023/08/16 00:08:47;;;;;;;4.38;2.40;;;;;;;;;;5057746;28;20044;-73
2023/08/16 00:11:13;;;;;;;5.30;2.30;;;;;;;;;;5067936;28;20420;-73
2023/08/16 00:13:39;;;;;;;3.42;2.35;;;;;;;;;;5062331;28;20075;-74
2023/08/16 00:16:05;;;;;;;5.03;2.55;;;;;;;;;;5060996;28;20437;-74
2023/08/16 00:18:31;;;;;;;4.43;2.67;;;;;;;;;;5053488;28;20021;-74
2023/08/16 00:20:59;;;;;;;4.38;2.05;;;;;;;;;;5059316;28;20130;-74
2023/08/16 00:23:25;;;;;;;3.08;2.28;;;;;;;;;;5056944;28;20028;-74
2023/08/16 00:25:51;;;;;;;2.90;2.15;;;;;;;;;;5060049;28;20108;-74
2023/08/16 00:28:17;;;;;;;3.75;2.70;;;;;;;;;;5072461;28;20504;-74
2023/08/16 00:30:43;;;;;;;4.40;2.40;;;;;;;;;;5065622;28;20150;-74
2023/08/16 00:33:10;;;;;;;3.22;2.20;;;;;;;;;;5070208;28;20191;-73
2023/08/16 00:35:36;;;;;;;3.22;2.20;;;;;;;;;;5058472;28;20560;-74
2023/08/16 00:38:02;;;;;;;3.22;2.20;;;;;;;;;;5057742;28;20029;-73
2023/08/16 00:40:28;;;;;;;3.45;2.22;;;;;;;;;;5072735;28;20017;-74
2023/08/16 00:42:54;;;;;;;3.00;2.20;;;;;;;;;;5066048;28;20029;-74
2023/08/16 00:45:20;;;;;;;4.93;2.17;;;;;;;;;;5070805;28;20035;-74
2023/08/16 00:47:46;;;;;;;3.20;2.42;;;;;;;;;;5060971;28;20510;-74
2023/08/16 00:50:13;;;;;;;4.47;3.35;;;;;;;;;;5057237;28;20036;-74
2023/08/16 00:52:42;;;;;;;2.53;2.00;;;;;;;;;;5063868;28;20082;-74
2023/08/16 00:55:09;;;;;;;3.10;2.55;;;;;;;;;;5064613;28;20427;-74
2023/08/16 00:57:35;;;;;;;4.93;2.53;;;;;;;;;;5066417;28;20029;-74
2023/08/16 01:00:01;;;;;;;3.33;2.80;;;;;;;;;;5062574;28;20029;-74
2023/08/16 01:02:27;;;;;;;3.65;2.80;;;;;;;;;;5058754;28;20480;-74
2023/08/16 01:04:56;;;;;;;3.22;2.40;;;;;;;;;;5066489;28;20036;-74
2023/08/16 01:07:22;;;;;;;3.63;2.33;;;;;;;;;;5055494;28;20039;-74
2023/08/16 01:09:48;;;;;;;4.13;2.75;;;;;;;;;;5053388;28;20036;-79
2023/08/16 01:12:52;;;;;;;3.67;2.40;;;;;;;;;;5062775;28;20043;-74
2023/08/16 01:15:25;;;;;;;3.50;2.53;;;;;;;;;;5041074;28;20500;-74
2023/08/16 01:17:53;;;;;;;6.47;3.00;;;;;;;;;;5046807;28;20033;-78
2023/08/16 01:20:19;;;;;;;4.15;2.63;;;;;;;;;;5053743;28;20036;-74
2023/08/16 01:22:55;;;;;;;4.97;2.35;;;;;;;;;;5055903;28;20092;-74
2023/08/16 01:25:24;;;;;;;4.25;2.53;;;;;;;;;;5068071;28;20096;-75
2023/08/16 01:27:52;;;;;;;4.80;2.85;;;;;;;;;;5066633;28;20021;-75
2023/08/16 01:30:20;;;;;;;4.10;2.35;;;;;;;;;;5062398;28;20505;-74
2023/08/16 01:32:47;;;;;;;3.28;2.50;;;;;;;;;;5065003;28;20023;-75
2023/08/16 01:35:13;;;;;;;3.15;2.47;;;;;;;;;;5063812;28;20053;-74
2023/08/16 01:37:39;;;;;;;3.22;2.17;;;;;;;;;;5055877;28;20021;-74
2023/08/16 01:40:08;;;;;;;4.40;2.40;;;;;;;;;;5053187;28;20033;-75
2023/08/16 01:42:36;;;;;;;5.57;2.67;;;;;;;;;;5057653;28;20047;-74
2023/08/16 01:45:03;;;;;;;2.83;2.33;;;;;;;;;;5056241;28;20110;-74
2023/08/16 01:47:29;;;;;;;4.68;2.30;;;;;;;;;;5065042;28;20020;-75
2023/08/16 01:49:56;;;;;;;2.83;2.20;;;;;;;;;;5061891;28;20107;-74
2023/08/16 01:52:23;;;;;;;3.88;2.03;;;;;;;;;;5060484;28;20036;-74
2023/08/16 01:54:49;;;;;;;3.28;2.20;;;;;;;;;;5059207;28;20029;-74
2023/08/16 01:57:15;;;;;;;3.00;2.30;;;;;;;;;;5061421;28;20089;-75
2023/08/16 01:59:41;;;;;;;4.53;2.40;;;;;;;;;;5063059;28;20033;-74
2023/08/16 02:02:07;;;;;;;4.65;2.83;;;;;;;;;;5060283;28;20033;-74
2023/08/16 02:04:33;;;;;;;4.13;2.30;;;;;;;;;;5061970;28;20349;-74
2023/08/16 02:06:59;;;;;;;3.38;2.50;;;;;;;;;;5060987;28;20032;-74
2023/08/16 02:09:25;;;;;;;5.63;2.80;;;;;;;;;;5054568;28;20484;-74
2023/08/16 02:11:52;;;;;;;4.50;2.60;;;;;;;;;;5053027;28;20488;-73
2023/08/16 02:14:18;;;;;;;3.88;2.40;;;;;;;;;;5052893;28;20085;-74
2023/08/16 02:16:44;;;;;;;3.38;2.50;;;;;;;;;;5064950;28;20035;-73
2023/08/16 02:19:10;;;;;;;4.28;2.10;;;;;;;;;;5056719;28;20021;-74
2023/08/16 02:21:37;;;;;;;2.45;2.25;;;;;;;;;;5056753;28;20376;-74
2023/08/16 02:24:03;;;;;;;4.80;2.20;;;;;;;;;;5060963;28;20389;-73
2023/08/16 02:26:29;;;;;;;4.10;2.65;;;;;;;;;;5065397;28;20029;-74
2023/08/16 02:28:55;;;;;;;3.75;2.20;;;;;;;;;;5055433;28;20542;-74
2023/08/16 02:31:22;;;;;;;5.10;2.35;;;;;;;;;;5058673;28;20099;-74
2023/08/16 02:33:48;;;;;;;6.13;2.55;;;;;;;;;;5052871;28;20025;-75
2023/08/16 02:36:14;;;;;;;3.85;2.30;;;;;;;;;;5064832;28;20047;-74
2023/08/16 02:38:40;;;;;;;4.65;2.33;;;;;;;;;;5055658;28;20440;-75
2023/08/16 02:41:06;;;;;;;4.57;2.55;;;;;;;;;;5062748;28;20025;-75
2023/08/16 02:43:32;;;;;;;3.88;2.80;;;;;;;;;;5057543;28;20029;-74
2023/08/16 02:45:58;;;;;;;3.88;2.78;;;;;;;;;;5054418;28;20384;-75
2023/08/16 02:48:24;;;;;;;4.68;2.85;;;;;;;;;;5058037;28;20035;-75
2023/08/16 02:50:50;;;;;;;3.40;2.28;;;;;;;;;;5058854;28;20048;-75
2023/08/16 02:53:17;;;;;;;3.55;2.38;;;;;;;;;;5051556;28;20029;-74
2023/08/16 02:55:43;;;;;;;6.78;3.40;;;;;;;;;;5053729;28;20592;-75
2023/08/16 02:58:09;;;;;;;4.10;2.35;;;;;;;;;;5052858;28;20032;-75
2023/08/16 03:00:35;;;;;;;3.08;2.78;;;;;;;;;;5058292;28;20497;-75
2023/08/16 03:03:01;;;;;;;5.85;3.45;;;;;;;;;;5052206;28;20088;-76
2023/08/16 03:05:27;;;;;;;4.40;2.88;;;;;;;;;;5057010;28;20031;-76
2023/08/16 03:07:54;;;;;;;4.03;2.60;;;;;;;;;;5051874;28;20379;-76
2023/08/16 03:10:20;;;;;;;3.28;2.40;;;;;;;;;;5056420;28;20857;-76
2023/08/16 03:12:46;;;;;;;2.63;2.40;;;;;;;;;;5061550;28;20029;-76
2023/08/16 03:15:12;;;;;;;3.50;2.75;;;;;;;;;;5061918;28;20514;-75
2023/08/16 03:17:38;;;;;;;3.47;2.28;;;;;;;;;;5057078;28;20056;-76
2023/08/16 03:20:06;;;;;;;4.18;2.63;;;;;;;;;;5061697;28;20468;-75
2023/08/16 03:22:33;;;;;;;4.18;2.67;;;;;;;;;;5063997;28;20086;-75
2023/08/16 03:24:59;;;;;;;3.65;2.50;;;;;;;;;;5053586;28;20505;-76
2023/08/16 03:27:25;;;;;;;4.55;2.47;;;;;;;;;;5057241;28;20046;-75
2023/08/16 03:29:51;;;;;;;3.88;2.45;;;;;;;;;;5058037;28;20063;-75
2023/08/16 03:32:17;;;;;;;5.60;3.15;;;;;;;;;;5065637;28;20485;-75
2023/08/16 03:34:43;;;;;;;3.25;2.20;;;;;;;;;;5059028;28;20338;-75
2023/08/16 03:37:10;;;;;;;3.95;2.50;;;;;;;;;;5052366;28;20475;-75
2023/08/16 03:39:36;;;;;;;4.18;2.40;;;;;;;;;;5055467;28;20055;-75
2023/08/16 03:42:02;;;;;;;4.28;2.60;;;;;;;;;;5056865;28;20021;-76
2023/08/16 03:44:28;;;;;;;4.85;2.67;;;;;;;;;;5057389;28;20040;-76
2023/08/16 03:46:57;;;;;;;3.25;2.60;;;;;;;;;;5054990;28;20048;-76
2023/08/16 03:49:23;;;;;;;6.13;2.80;;;;;;;;;;5055896;28;20064;-76
2023/08/16 03:51:49;;;;;;;5.65;3.90;;;;;;;;;;5060947;28;20032;-76
2023/08/16 03:54:15;;;;;;;5.43;2.80;;;;;;;;;;5059516;28;20021;-76
2023/08/16 03:56:41;;;;;;;4.63;3.58;;;;;;;;;;5070447;28;20040;-76
2023/08/16 03:59:08;;;;;;;5.00;2.97;;;;;;;;;;5053862;28;20082;-76
2023/08/16 04:01:34;;;;;;;3.45;2.80;;;;;;;;;;5063852;28;20040;-76
2023/08/16 04:04:00;;;;;;;6.72;3.38;;;;;;;;;;5063327;28;20768;-77
2023/08/16 04:06:26;;;;;;;4.57;3.20;;;;;;;;;;5062133;28;20032;-76
2023/08/16 04:08:52;;;;;;;4.38;3.08;;;;;;;;;;5056849;28;20504;-76
2023/08/16 04:11:18;;;;;;;4.43;3.60;;;;;;;;;;5063608;28;20112;-76
2023/08/16 04:13:44;;;;;;;7.93;3.33;;;;;;;;;;5058649;28;20061;-76
2023/08/16 04:16:11;;;;;;;4.28;2.70;;;;;;;;;;5061548;28;20039;-76
2023/08/16 04:18:37;;;;;;;4.80;3.10;;;;;;;;;;5065142;28;20029;-75
2023/08/16 04:21:03;;;;;;;4.10;3.13;;;;;;;;;;5048792;28;20025;-75
2023/08/16 04:23:29;;;;;;;4.18;2.95;;;;;;;;;;5050755;28;20107;-76
2023/08/16 04:25:55;;;;;;;5.40;4.00;;;;;;;;;;5055986;28;20035;-76
2023/08/16 04:28:21;;;;;;;4.90;2.92;;;;;;;;;;5049727;28;20425;-76
2023/08/16 04:30:47;;;;;;;4.85;2.92;;;;;;;;;;5048523;28;20028;-76
2023/08/16 04:33:13;;;;;;;6.93;3.47;;;;;;;;;;5051905;28;20024;-76
2023/08/16 04:35:40;;;;;;;9.02;2.97;;;;;;;;;;5050555;28;20056;-75
2023/08/16 04:38:06;;;;;;;4.57;3.42;;;;;;;;;;5053162;28;20931;-76
2023/08/16 04:40:32;;;;;;;5.75;3.25;;;;;;;;;;5056518;28;20116;-76
2023/08/16 04:42:58;;;;;;;4.63;3.28;;;;;;;;;;5054948;28;20115;-76
2023/08/16 04:45:24;;;;;;;5.45;3.75;;;;;;;;;;5050424;28;20064;-76
2023/08/16 04:47:50;;;;;;;5.95;3.08;;;;;;;;;;5067887;28;20531;-75
2023/08/16 04:50:16;;;;;;;5.55;4.03;;;;;;;;;;5057453;28;20039;-76
2023/08/16 04:52:42;;;;;;;4.22;3.20;;;;;;;;;;5050491;28;20025;-76
2023/08/16 04:55:08;;;;;;;4.18;2.90;;;;;;;;;;5050344;28;20040;-77
2023/08/16 04:57:34;;;;;;;4.07;2.90;;;;;;;;;;5052610;28;20032;-76
2023/08/16 05:00:06;;;;;;;6.10;3.17;;;;;;;;;;5055822;28;20020;-76
2023/08/16 05:02:32;;;;;;;4.60;3.25;;;;;;;;;;5055019;28;20038;-76
2023/08/16 05:04:58;;;;;;;3.88;3.17;;;;;;;;;;5066091;28;20468;-76
2023/08/16 05:07:24;;;;;;;5.35;3.72;;;;;;;;;;5051713;28;20033;-77
2023/08/16 05:09:51;;;;;;;4.50;3.45;;;;;;;;;;5072715;28;20083;-76
2023/08/16 05:12:17;;;;;;;7.20;3.05;;;;;;;;;;5072501;28;20032;-76
2023/08/16 05:14:43;;;;;;;7.20;3.75;;;;;;;;;;5059526;28;20566;-76
2023/08/16 05:17:09;;;;;;;6.32;3.28;;;;;;;;;;5054630;28;20090;-76
2023/08/16 05:19:35;;;;;;;3.85;3.17;;;;;;;;;;5051560;28;20028;-77
2023/08/16 05:22:02;;;;;;;4.68;3.08;;;;;;;;;;5055439;28;20029;-76
2023/08/16 05:24:28;;;;;;;4.70;3.13;;;;;;;;;;5053085;28;20540;-76
2023/08/16 05:26:54;;;;;;;4.18;3.10;;;;;;;;;;5051568;28;20017;-76
2023/08/16 05:29:20;;;;;;;4.68;3.25;;;;;;;;;;5055137;28;20071;-76
2023/08/16 05:31:46;;;;;;;4.43;3.25;;;;;;;;;;5053013;28;20035;-76
2023/08/16 05:34:15;;;;;;;4.68;3.28;;;;;;;;;;5053983;28;20094;-76
2023/08/16 05:36:48;;;;;;;3.53;2.83;;;;;;;;;;5057666;28;20050;-76
2023/08/16 05:39:14;;;;;;;5.50;3.13;;;;;;;;;;5055228;28;20051;-75
2023/08/16 05:41:41;;;;;;;3.40;2.95;;;;;;;;;;5053699;28;20025;-75
2023/08/16 05:44:07;;;;;;;6.00;3.00;;;;;;;;;;5056565;28;20024;-76
2023/08/16 05:46:34;;;;;;;4.35;3.42;;;;;;;;;;5055660;28;20041;-76
2023/08/16 05:49:05;;;;;;;5.07;3.83;;;;;;;;;;5064196;28;20613;-76
2023/08/16 05:51:31;;;;;;;4.97;3.38;;;;;;;;;;5055041;28;20034;-76
2023/08/16 05:53:58;;;;;;;7.97;3.47;;;;;;;;;;5054146;28;20641;-76
2023/08/16 05:56:24;;;;;;;7.68;3.35;;;;;;;;;;5050835;28;20048;-82
2023/08/16 05:58:50;;;;;;;4.35;3.00;;;;;;;;;;5054697;28;20238;-74
2023/08/16 06:01:16;;;;;;;4.50;3.17;;;;;;;;;;5057289;28;20048;-74
2023/08/16 06:03:42;;;;;;;3.70;3.10;;;;;;;;;;5049389;28;20103;-74
2023/08/16 06:06:08;;;;;;;4.72;3.35;;;;;;;;;;5055365;28;20795;-75
2023/08/16 06:08:34;;;;;;;6.10;3.05;;;;;;;;;;5056070;28;20029;-74
2023/08/16 06:11:01;;;;;;;5.35;3.45;;;;;;;;;;5055231;28;20303;-74
2023/08/16 06:13:27;;;;;;;5.80;4.32;;;;;;;;;;5059183;28;20518;-75
2023/08/16 06:15:53;;;;;;;5.47;3.20;;;;;;;;;;5056718;28;20414;-75
2023/08/16 06:18:20;;;;;;;4.45;3.28;;;;;;;;;;5053453;28;20112;-74
2023/08/16 06:20:46;;;;;;;7.70;3.35;;;;;;;;;;5053081;28;20041;-75
2023/08/16 06:23:12;;;;;;;6.63;3.40;;;;;;;;;;5049422;28;20029;-74
2023/08/16 06:25:38;;;;;;;7.65;3.38;;;;;;;;;;5051724;28;20040;-74
2023/08/16 06:28:05;;;;;;;5.15;2.92;;;;;;;;;;5048779;28;20757;-75
2023/08/16 06:30:31;;;;;;;4.10;3.15;;;;;;;;;;5058204;28;20134;-74
2023/08/16 06:32:57;;;;;;;8.40;3.40;;;;;;;;;;5048547;28;20029;-74
2023/08/16 06:35:24;;;;;;;4.15;3.28;;;;;;;;;;5052919;28;20055;-74
2023/08/16 06:37:50;;;;;;;5.15;3.85;;;;;;;;;;5059457;28;20398;-75
2023/08/16 06:40:17;;;;;;;6.32;3.22;;;;;;;;;;5057999;28;20377;-75
2023/08/16 06:42:43;;;;;;;6.75;3.55;;;;;;;;;;5054327;28;20029;-75
2023/08/16 06:45:09;;;;;;;5.82;3.05;;;;;;;;;;5052044;28;20033;-74
2023/08/16 06:47:35;;;;;;;4.10;3.28;;;;;;;;;;5054644;28;20024;-74
2023/08/16 06:50:02;;;;;;;4.38;3.70;;;;;;;;;;5053299;28;20054;-74
2023/08/16 06:52:28;;;;;;;6.18;3.33;;;;;;;;;;5058579;28;20079;-75
2023/08/16 06:54:54;;;;;;;5.35;3.30;;;;;;;;;;5050233;28;20104;-75
2023/08/16 06:57:20;;;;;;;5.25;3.40;;;;;;;;;;5046354;28;20055;-74
2023/08/16 06:59:46;;;;;;;4.65;3.33;;;;;;;;;;5053620;28;20376;-75
2023/08/16 07:02:14;;;;;;;6.47;3.65;;;;;;;;;;5056782;28;20027;-75
2023/08/16 07:04:44;;;;;;;9.93;4.35;;;;;;;;;;5059798;28;20039;-75
2023/08/16 07:07:11;;;;;;;4.30;3.03;;;;;;;;;;5048438;28;20499;-75
2023/08/16 07:09:37;;;;;;;6.30;3.30;;;;;;;;;;5049850;28;20427;-76
2023/08/16 07:12:04;;;;;;;4.38;3.63;;;;;;;;;;5045545;28;20106;-74
2023/08/16 07:14:30;;;;;;;6.53;3.45;;;;;;;;;;5057899;28;20142;-75
2023/08/16 07:16:56;;;;;;;5.18;3.83;;;;;;;;;;5055147;28;20159;-75
2023/08/16 07:19:23;;;;;;;4.50;3.53;;;;;;;;;;5065112;28;20037;-76
2023/08/16 07:21:49;;;;;;;4.68;3.72;;;;;;;;;;5057022;28;20028;-74
2023/08/16 07:24:15;;;;;;;6.38;3.67;;;;;;;;;;5052623;28;20024;-74
2023/08/16 07:26:41;;;;;;;4.70;3.20;;;;;;;;;;5052084;28;20500;-75
2023/08/16 07:29:08;;;;;;;4.30;3.58;;;;;;;;;;5054246;28;20056;-75
2023/08/16 07:31:34;;;;;;;3.85;3.15;;;;;;;;;;5048599;28;20467;-75
2023/08/16 07:34:00;;;;;;;6.45;3.65;;;;;;;;;;5047842;28;20515;-74
2023/08/16 07:36:27;;;;;;;5.22;3.58;;;;;;;;;;5047609;28;20063;-75
2023/08/16 07:38:54;;;;;;;7.50;4.03;;;;;;;;;;5047948;28;20378;-75
2023/08/16 07:41:20;;;;;;;5.85;4.50;;;;;;;;;;5054150;28;20217;-74
2023/08/16 07:43:46;;;;;;;4.57;3.50;;;;;;;;;;5053525;28;20044;-75
2023/08/16 07:46:12;;;;;;;7.20;4.18;;;;;;;;;;5062383;28;20040;-75
2023/08/16 07:48:38;;;;;;;6.57;3.88;;;;;;;;;;5050821;28;20079;-76
2023/08/16 07:51:04;;;;;;;6.35;3.78;;;;;;;;;;5052571;28;20025;-75
2023/08/16 07:53:31;;;;;;;5.00;3.58;;;;;;;;;;5058410;28;20078;-75
2023/08/16 07:55:57;;;;;;;9.30;3.50;;;;;;;;;;5056783;28;20155;-76
2023/08/16 07:58:23;;;;;;;4.22;3.70;;;;;;;;;;5056433;28;20372;-76
2023/08/16 08:00:54;;;;;;;7.05;3.60;;;;;;;;;;5059250;28;20506;-75
2023/08/16 08:03:21;;;;;;;4.93;3.55;;;;;;;;;;5059039;28;20492;-75
2023/08/16 08:05:47;;;;;;;6.78;4.20;;;;;;;;;;5059681;28;20029;-76
2023/08/16 08:08:14;;;;;;;7.45;3.70;;;;;;;;;;5057767;28;20427;-75
2023/08/16 08:10:46;;;;;;;6.53;3.85;;;;;;;;;;5061611;28;20082;-75
2023/08/16 08:13:12;;;;;;;4.90;3.72;;;;;;;;;;5073679;28;20060;-76
2023/08/16 08:15:38;;;;;;;4.88;4.30;;;;;;;;;;5058948;28;20032;-76
2023/08/16 08:18:05;;;;;;;4.38;3.30;;;;;;;;;;5055928;28;20397;-75
2023/08/16 08:20:31;;;;;;;5.60;3.58;;;;;;;;;;5057766;28;20685;-75
2023/08/16 08:22:57;;;;;;;5.43;3.72;;;;;;;;;;5048164;28;20037;-75
2023/08/16 08:25:24;;;;;;;4.53;3.97;;;;;;;;;;5054439;28;20618;-75
2023/08/16 08:27:50;;;;;;;5.30;3.55;;;;;;;;;;5058295;28;20439;-76
2023/08/16 08:30:18;;;;;;;6.03;3.80;;;;;;;;;;5050072;28;20080;-75
2023/08/16 08:32:44;;;;;;;6.88;3.60;;;;;;;;;;5053962;28;20044;-76
2023/08/16 08:35:11;;;;;;;9.73;3.50;;;;;;;;;;5062622;28;20076;-75
2023/08/16 08:37:37;;;;;;;6.40;3.08;;;;;;;;;;5063854;28;20042;-76
2023/08/16 08:40:04;;;;;;;4.53;3.63;;;;;;;;;;5057103;28;20031;-75
2023/08/16 08:42:32;;;;;;;5.10;3.60;;;;;;;;;;5057676;28;20029;-75
2023/08/16 08:45:01;;;;;;;6.00;3.88;;;;;;;;;;5060758;28;20070;-75
2023/08/16 08:47:27;;;;;;;5.90;3.88;;;;;;;;;;5061371;28;20395;-75
2023/08/16 08:49:53;;;;;;;4.85;3.50;;;;;;;;;;5060087;28;20024;-76
2023/08/16 08:52:21;;;;;;;4.47;3.55;;;;;;;;;;5049285;28;20396;-75
2023/08/16 08:54:47;;;;;;;5.43;3.47;;;;;;;;;;5053987;28;20480;-76
2023/08/16 08:57:15;;;;;;;11.40;4.60;;;;;;;;;;5059394;28;20488;-76
2023/08/16 08:59:45;;;;;;;5.00;3.10;;;;;;;;;;5059658;28;20029;-75
2023/08/16 09:02:12;;;;;;;7.00;3.58;;;;;;;;;;5055129;28;20052;-75
2023/08/16 09:04:39;;;;;;;4.95;3.58;;;;;;;;;;5057841;28;20106;-73
2023/08/16 09:07:07;;;;;;;5.20;3.35;;;;;;;;;;5054694;28;20645;-76
2023/08/16 09:09:35;;;;;;;8.13;3.40;;;;;;;;;;5049362;28;20512;-75
2023/08/16 09:12:01;;;;;;;6.50;3.17;;;;;;;;;;5047956;28;20086;-76
2023/08/16 09:14:27;;;;;;;5.65;3.10;;;;;;;;;;5056083;28;20036;-76
2023/08/16 09:16:53;;;;;;;4.32;3.00;;;;;;;;;;5049564;28;20033;-74
2023/08/16 09:19:19;;;;;;;4.85;3.53;;;;;;;;;;5051315;28;20087;-76
2023/08/16 09:21:46;;;;;;;4.13;2.70;;;;;;;;;;5051049;28;20447;-75
2023/08/16 09:24:12;;;;;;;4.85;3.08;;;;;;;;;;5063335;28;20117;-76
2023/08/16 09:26:38;;;;;;;3.95;3.25;;;;;;;;;;5059305;28;20115;-77
2023/08/16 09:29:05;;;;;;;4.50;2.88;;;;;;;;;;5053929;28;20029;-76
2023/08/16 09:31:37;;;;;;;9.20;3.25;;;;;;;;;;5049610;28;20404;-76
2023/08/16 09:34:03;;;;;;;3.28;2.78;;;;;;;;;;5055709;28;20469;-75
2023/08/16 09:36:30;;;;;;;4.82;3.33;;;;;;;;;;5051403;28;20052;-74
2023/08/16 09:39:04;;;;;;;5.07;3.20;;;;;;;;;;5058312;28;20029;-74
2023/08/16 09:41:31;;;;;;;4.93;3.65;;;;;;;;;;5048991;28;20029;-77
2023/08/16 09:44:04;;;;;;;3.88;2.80;;;;;;;;;;5054964;28;20020;-74
2023/08/16 09:46:31;;;;;;;3.33;2.85;;;;;;;;;;5053799;28;20051;-76
2023/08/16 09:49:04;;;;;;;3.10;2.80;;;;;;;;;;5056458;28;20477;-74
2023/08/16 09:51:35;;;;;;;3.95;2.60;;;;;;;;;;5060306;28;20280;-76
2023/08/16 09:54:08;;;;;;;5.03;2.90;;;;;;;;;;5058044;28;20426;-74
2023/08/16 09:56:34;;;;;;;4.10;3.15;;;;;;;;;;5064241;28;20033;-76
2023/08/16 09:59:01;;;;;;;4.78;2.50;;;;;;;;;;5050823;28;20029;-76
2023/08/16 10:01:27;;;;;;;3.15;2.58;;;;;;;;;;5064406;28;20384;-74
2023/08/16 10:03:53;;;;;;;3.42;2.35;;;;;;;;;;5071762;28;20146;-75
2023/08/16 10:06:23;;;;;;;4.22;2.35;;;;;;;;;;5066422;28;20032;-74
2023/08/16 10:08:50;;;;;;;3.00;2.38;;;;;;;;;;5052587;28;20075;-77
2023/08/16 10:11:16;;;;;;;2.60;2.33;;;;;;;;;;5054568;28;20024;-74
2023/08/16 10:13:43;;;;;;;3.10;2.30;;;;;;;;;;5050728;28;20604;-74
2023/08/16 10:16:11;;;;;;;2.33;2.00;;;;;;;;;;5056970;28;20525;-74
2023/08/16 10:18:39;;;;;;;5.28;2.42;;;;;;;;;;5051281;28;20088;-74
2023/08/16 10:21:06;;;;;;;3.92;2.40;;;;;;;;;;5047278;28;20033;-75
2023/08/16 10:23:33;;;;;;;2.63;2.10;;;;;;;;;;5052905;28;20094;-74
2023/08/16 10:26:02;;;;;;;3.33;2.15;;;;;;;;;;5058533;28;20021;-75
2023/08/16 10:28:28;;;;;;;4.10;2.35;;;;;;;;;;5053958;28;20024;-74
2023/08/16 10:30:56;;;;;;;2.22;2.00;;;;;;;;;;5050753;28;20048;-74
2023/08/16 10:33:33;;;;;;;3.13;2.30;;;;;;;;;;5067343;28;20044;-75
2023/08/16 10:36:00;;;;;;;2.50;2.20;;;;;;;;;;5073850;28;20500;-74
2023/08/16 10:38:34;;;;;;;2.78;2.00;;;;;;;;;;5052453;28;20180;-75
2023/08/16 10:41:00;;;;;;;2.10;1.90;;;;;;;;;;5054957;28;20369;-74
2023/08/16 10:43:35;;;;;;;2.42;2.00;;;;;;;;;;5047818;28;20551;-75
2023/08/16 10:46:01;;;;;;;1.98;1.70;;;;;;;;;;5062387;28;20025;-74
2023/08/16 10:48:34;;;;;;;3.10;1.77;;;;;;;;;;5050470;28;20040;-75
2023/08/16 10:51:04;;;;;;;2.97;1.90;;;;;;;;;;5053540;28;20107;-75
2023/08/16 10:53:30;;;;;;;4.40;2.08;;;;;;;;;;5062452;28;20032;-75
2023/08/16 10:55:57;;;;;;;2.55;1.70;;;;;;;;;;5051580;28;20027;-75
2023/08/16 10:58:23;;;;;;;2.10;1.70;;;;;;;;;;5059333;28;20389;-75
2023/08/16 11:00:57;;;;;;;2.58;1.58;;;;;;;;;;5053335;28;20503;-75
2023/08/16 11:03:30;;;;;;;3.72;1.60;;;;;;;;;;5052011;28;20028;-75
2023/08/16 11:05:57;;;;;;;2.85;1.80;;;;;;;;;;5058037;28;20020;-75
2023/08/16 11:08:24;;;;;;;2.55;1.60;;;;;;;;;;5055179;28;20028;-75
2023/08/16 11:10:50;;;;;;;1.85;1.48;;;;;;;;;;5051588;28;20024;-75
2023/08/16 11:13:17;;;;;;;1.70;1.60;;;;;;;;;;5061311;28;20033;-74
2023/08/16 11:15:43;;;;;;;2.30;2.10;;;;;;;;;;5062513;28;20025;-75
2023/08/16 11:18:10;;;;;;;2.47;1.80;;;;;;;;;;5056473;28;20032;-74
2023/08/16 11:20:36;;;;;;;2.30;1.70;;;;;;;;;;5061719;28;20415;-75
2023/08/16 11:23:05;;;;;;;3.03;1.70;;;;;;;;;;5061642;28;20089;-74
2023/08/16 11:25:33;;;;;;;3.40;2.05;;;;;;;;;;5060610;28;20032;-75
2023/08/16 11:28:05;;;;;;;2.03;1.73;;;;;;;;;;5064965;28;20357;-75
2023/08/16 11:30:32;;;;;;;2.50;1.88;;;;;;;;;;5071150;28;20036;-76
2023/08/16 11:33:01;;;;;;;1.77;1.67;;;;;;;;;;5058081;28;20293;-77
2023/08/16 11:35:27;;;;;;;1.55;1.45;;;;;;;;;;5062550;28;20380;-76
2023/08/16 11:37:53;;;;;;;3.30;1.70;;;;;;;;;;5063964;28;20045;-77
2023/08/16 11:40:23;;;;;;;3.25;1.70;;;;;;;;;;5052863;28;20074;-76
2023/08/16 11:42:50;;;;;;;1.60;1.50;;;;;;;;;;5053660;28;20043;-75
2023/08/16 11:45:20;;;;;;;2.22;1.75;;;;;;;;;;5058567;28;20436;-76
2023/08/16 11:47:51;;;;;;;2.88;1.90;;;;;;;;;;5056955;28;20459;-76
2023/08/16 11:50:17;;;;;;;1.70;1.60;;;;;;;;;;5060992;28;20024;-76
2023/08/16 11:52:45;;;;;;;2.50;1.60;;;;;;;;;;5058908;28;20029;-76
2023/08/16 11:55:14;;;;;;;2.00;1.60;;;;;;;;;;5053779;28;20028;-75
2023/08/16 11:57:46;;;;;;;1.80;1.70;;;;;;;;;;5051877;28;20452;-76
2023/08/16 12:00:16;;;;;;;2.97;1.80;;;;;;;;;;5064839;28;20024;-76
2023/08/16 12:02:44;;;;;;;3.00;1.85;;;;;;;;;;5070920;28;20059;-75
2023/08/16 12:05:10;;;;;;;3.53;2.45;;;;;;;;;;5060044;28;20017;-75
2023/08/16 12:07:43;;;;;;;2.03;1.70;;;;;;;;;;5062274;28;20025;-77
2023/08/16 12:10:10;;;;;;;2.60;1.63;;;;;;;;;;5054719;28;20498;-76
2023/08/16 12:12:36;;;;;;;1.83;1.70;;;;;;;;;;5057522;28;20036;-76
2023/08/16 12:15:03;;;;;;;3.03;1.80;;;;;;;;;;5061880;28;20116;-76
2023/08/16 12:17:30;;;;;;;2.20;2.00;;;;;;;;;;5067827;28;20646;-75
2023/08/16 12:19:56;;;;;;;2.13;1.90;;;;;;;;;;5048940;28;20131;-76
2023/08/16 12:22:22;;;;;;;3.10;2.00;;;;;;;;;;5065925;28;20067;-76
2023/08/16 12:24:48;;;;;;;4.85;2.00;;;;;;;;;;5056346;28;20661;-76
2023/08/16 12:27:14;;;;;;;3.35;1.80;;;;;;;;;;5058747;28;20064;-75
2023/08/16 12:29:40;;;;;;;4.13;1.70;;;;;;;;;;5060553;28;20405;-76
2023/08/16 12:32:06;;;;;;;4.20;1.95;;;;;;;;;;5063532;28;20037;-76
2023/08/16 12:34:32;;;;;;;2.15;1.88;;;;;;;;;;5061646;28;20413;-76
2023/08/16 12:36:59;;;;;;;2.38;1.90;;;;;;;;;;5043443;28;20044;-77
2023/08/16 12:39:25;;;;;;;4.25;1.85;;;;;;;;;;5056898;28;20028;-77
2023/08/16 12:41:51;;;;;;;3.53;2.22;;;;;;;;;;5056453;28;20025;-76
2023/08/16 12:44:17;;;;;;;3.00;2.00;;;;;;;;;;5053968;28;20035;-75
2023/08/16 12:46:43;;;;;;;1.98;1.73;;;;;;;;;;5055076;28;20033;-76
2023/08/16 12:49:09;;;;;;;3.20;1.90;;;;;;;;;;5057218;28;20032;-77
2023/08/16 12:51:36;;;;;;;1.83;1.70;;;;;;;;;;5050654;28;20025;-76
2023/08/16 12:54:02;;;;;;;2.97;2.00;;;;;;;;;;5050630;28;20194;-76
2023/08/16 12:56:28;;;;;;;2.30;1.75;;;;;;;;;;5056749;28;20518;-77
2023/08/16 12:58:54;;;;;;;3.03;1.83;;;;;;;;;;5071756;28;20123;-76
2023/08/16 13:01:21;;;;;;;3.15;1.77;;;;;;;;;;5054080;28;20104;-76
2023/08/16 13:03:47;;;;;;;2.13;1.80;;;;;;;;;;5060270;28;20574;-76
2023/08/16 13:06:13;;;;;;;1.95;1.70;;;;;;;;;;5064771;28;20448;-77
2023/08/16 13:08:39;;;;;;;2.15;1.83;;;;;;;;;;5053650;28;20362;-77
2023/08/16 13:11:05;;;;;;;2.10;1.90;;;;;;;;;;5055948;28;20035;-76
2023/08/16 13:13:31;;;;;;;1.75;1.65;;;;;;;;;;5056890;28;20040;-76
2023/08/16 13:15:57;;;;;;;3.03;2.40;;;;;;;;;;5054687;28;20388;-77
2023/08/16 13:18:23;;;;;;;3.88;1.95;;;;;;;;;;5053967;28;20032;-76
2023/08/16 13:20:49;;;;;;;3.75;2.08;;;;;;;;;;5052093;28;20040;-76
2023/08/16 13:23:16;;;;;;;6.22;2.30;;;;;;;;;;5062197;28;20384;-76
2023/08/16 13:25:42;;;;;;;2.70;2.10;;;;;;;;;;5053905;28;20555;-75
2023/08/16 13:28:08;;;;;;;3.97;2.10;;;;;;;;;;5045410;28;20021;-75
2023/08/16 13:30:39;;;;;;;3.08;2.30;;;;;;;;;;5052531;28;20370;-77
2023/08/16 13:33:07;;;;;;;4.10;2.22;;;;;;;;;;5062489;28;20020;-75
2023/08/16 13:35:34;;;;;;;2.80;2.03;;;;;;;;;;5059372;28;20141;-77
2023/08/16 13:38:00;;;;;;;3.28;2.50;;;;;;;;;;5055486;28;20507;-74
2023/08/16 13:40:29;;;;;;;2.97;2.38;;;;;;;;;;5058931;28;20036;-75
2023/08/16 13:42:57;;;;;;;4.97;2.30;;;;;;;;;;5061754;28;20258;-76
2023/08/16 13:45:23;;;;;;;3.30;2.40;;;;;;;;;;5056868;28;20017;-76
2023/08/16 13:47:49;;;;;;;2.95;2.00;;;;;;;;;;5051044;28;20043;-76
2023/08/16 13:50:15;;;;;;;4.47;2.13;;;;;;;;;;5052197;28;20404;-76
2023/08/16 13:52:41;;;;;;;4.38;2.08;;;;;;;;;;5059870;28;20051;-76
2023/08/16 13:55:07;;;;;;;4.25;2.00;;;;;;;;;;5050810;28;20476;-75
2023/08/16 13:57:34;;;;;;;2.60;2.08;;;;;;;;;;5059676;28;20495;-75
2023/08/16 14:00:00;;;;;;;5.20;2.00;;;;;;;;;;5048358;28;20126;-76
2023/08/16 14:02:26;;;;;;;1.95;1.60;;;;;;;;;;5058090;28;20491;-75
2023/08/16 14:04:52;;;;;;;3.10;1.90;;;;;;;;;;5051885;28;20480;-75
2023/08/16 14:07:18;;;;;;;3.20;1.85;;;;;;;;;;5058641;28;20531;-74
2023/08/16 14:09:44;;;;;;;2.78;1.92;;;;;;;;;;5059487;28;20035;-74
2023/08/16 14:12:10;;;;;;;4.55;1.90;;;;;;;;;;5055065;28;20028;-74
2023/08/16 14:14:37;;;;;;;4.40;2.30;;;;;;;;;;5057197;28;20496;-76
2023/08/16 14:17:03;;;;;;;5.18;2.22;;;;;;;;;;5053718;28;20035;-77
2023/08/16 14:19:29;;;;;;;2.45;2.25;;;;;;;;;;5056768;28;20032;-75
2023/08/16 14:21:55;;;;;;;7.15;4.00;;;;;;;;;;5057801;28;20016;-77
2023/08/16 14:24:22;;;;;;;3.25;2.40;;;;;;;;;;5059289;28;20032;-74
2023/08/16 14:26:48;;;;;;;4.93;2.50;;;;;;;;;;5056521;28;20127;-77
2023/08/16 14:29:15;;;;;;;3.60;2.63;;;;;;;;;;5051801;28;20036;-77
2023/08/16 14:31:41;;;;;;;4.07;2.42;;;;;;;;;;5053862;28;20056;-76
2023/08/16 14:34:07;;;;;;;4.05;2.40;;;;;;;;;;5057526;28;20028;-75
2023/08/16 14:36:33;;;;;;;4.55;2.30;;;;;;;;;;5076735;28;20052;-75
2023/08/16 14:39:00;;;;;;;2.40;2.13;;;;;;;;;;5052448;28;20037;-75
2023/08/16 14:41:27;;;;;;;3.53;2.65;;;;;;;;;;5052947;28;20074;-75